createdAt,value
2022-10-11T00:02:34.352Z,101024.91
2022-10-11T00:05:14.775Z,101023.78
2022-10-11T00:07:54.918Z,101042.44
2022-10-11T00:10:35.182Z,101045.62
2022-10-11T00:13:15.446Z,101048.06
2022-10-11T00:15:55.988Z,101050.41
2022-10-11T00:18:38.915Z,101055.56
2022-10-11T00:21:25.687Z,101062.50
2022-10-11T00:24:07.715Z,101068.78
2022-10-11T00:26:48.380Z,101072.69
2022-10-11T00:29:28.598Z,101072.69
2022-10-11T00:32:08.818Z,101077.81
2022-10-11T00:34:49.158Z,101082.91
2022-10-11T00:37:29.334Z,101078.75
2022-10-11T00:40:15.418Z,101088.94
2022-10-11T00:42:56.239Z,101090.16
2022-10-11T00:46:05.163Z,101089.41
2022-10-11T00:48:49.904Z,101097.94
2022-10-11T00:51:42.494Z,101098.66
2022-10-11T00:54:26.502Z,101097.41
2022-10-11T00:57:11.379Z,101106.16
2022-10-11T00:59:55.101Z,101106.50
2022-10-11T01:02:35.194Z,101099.06
2022-10-11T01:05:29.174Z,101104.97
2022-10-11T01:08:09.862Z,101108.06
2022-10-11T01:10:57.488Z,101113.16
2022-10-11T01:13:55.075Z,101117.03
2022-10-11T01:16:45.013Z,101129.75
2022-10-11T01:19:44.204Z,101132.66
2022-10-11T01:22:48.707Z,101132.69
2022-10-11T01:25:37.424Z,101133.13
2022-10-11T01:28:34.834Z,101134.87
2022-10-11T01:31:25.964Z,101135.53
2022-10-11T01:34:11.425Z,101135.63
2022-10-11T01:37:00.018Z,101136.94
2022-10-11T01:39:47.368Z,101137.25
2022-10-11T01:42:29.425Z,101139.28
2022-10-11T01:45:16.248Z,101141.94
2022-10-11T01:48:05.908Z,101149.66
2022-10-11T01:50:49.033Z,101150.09
2022-10-11T01:53:51.730Z,101151.25
2022-10-11T01:56:47.085Z,101148.97
2022-10-11T01:59:41.968Z,101150.66
2022-10-11T02:02:33.803Z,101159.06
2022-10-11T02:05:25.000Z,101149.47
2022-10-11T02:08:15.486Z,101158.31
2022-10-11T02:11:04.437Z,101160.25
2022-10-11T02:13:56.070Z,101170.28
2022-10-11T02:16:41.874Z,101172.63
2022-10-11T02:19:27.538Z,101179.37
2022-10-11T02:22:12.949Z,101176.94
2022-10-11T02:24:58.374Z,101178.88
2022-10-11T02:27:43.531Z,101176.53
2022-10-11T02:30:26.908Z,101176.72
2022-10-11T02:33:12.319Z,101182.94
2022-10-11T02:36:09.027Z,101189.16
2022-10-11T02:38:56.085Z,101189.34
2022-10-11T02:41:40.504Z,101190.06
2022-10-11T02:44:27.829Z,101189.87
2022-10-11T02:47:09.507Z,101192.81
2022-10-11T02:49:50.584Z,101194.19
2022-10-11T02:52:30.760Z,101200.59
2022-10-11T02:55:12.801Z,101205.09
2022-10-11T02:57:52.830Z,101210.50
2022-10-11T03:00:33.376Z,101211.50
2022-10-11T03:03:13.404Z,101215.75
2022-10-11T03:05:59.298Z,101206.50
2022-10-11T03:08:40.567Z,101214.94
2022-10-11T03:11:20.503Z,101221.81
2022-10-11T03:14:02.975Z,101216.91
2022-10-11T03:16:43.139Z,101225.12
2022-10-11T03:19:23.420Z,101234.25
2022-10-11T03:22:03.638Z,101235.62
2022-10-11T03:24:43.938Z,101243.03
2022-10-11T03:27:24.246Z,101246.00
2022-10-11T03:30:05.161Z,101243.13
2022-10-11T03:32:46.746Z,101251.41
2022-10-11T03:35:26.742Z,101252.66
2022-10-11T03:38:09.130Z,101256.72
2022-10-11T03:40:53.445Z,101256.31
2022-10-11T03:43:33.859Z,101253.84
2022-10-11T03:46:14.098Z,101268.28
2022-10-11T03:48:54.327Z,101253.59
2022-10-11T03:51:34.742Z,101265.50
2022-10-11T03:54:14.883Z,101266.03
2022-10-11T03:56:55.059Z,101261.25
2022-10-11T03:59:35.331Z,101265.13
2022-10-11T04:02:16.014Z,101271.56
2022-10-11T04:04:55.828Z,101273.19
2022-10-11T04:07:36.376Z,101271.22
2022-10-11T04:10:16.414Z,101274.25
2022-10-11T04:12:56.622Z,101279.81
2022-10-11T04:15:37.869Z,101280.75
2022-10-11T04:18:18.860Z,101279.12
2022-10-11T04:20:59.193Z,101286.34
2022-10-11T04:23:39.366Z,101298.78
2022-10-11T04:26:19.534Z,101300.00
2022-10-11T04:28:59.820Z,101294.84
2022-10-11T04:31:40.141Z,101299.38
2022-10-11T04:34:20.469Z,101297.84
2022-10-11T04:37:02.849Z,101305.16
2022-10-11T04:39:44.970Z,101306.09
2022-10-11T04:42:25.247Z,101307.81
2022-10-11T04:45:06.300Z,101322.06
2022-10-11T04:47:47.178Z,101326.53
2022-10-11T04:50:27.751Z,101314.50
2022-10-11T04:53:10.954Z,101317.41
2022-10-11T04:55:58.884Z,101314.56
2022-10-11T04:58:41.715Z,101323.75
2022-10-11T05:01:23.005Z,101329.25
2022-10-11T05:04:03.227Z,101332.84
2022-10-11T05:06:43.585Z,101339.19
2022-10-11T05:09:23.720Z,101343.81
2022-10-11T05:12:04.309Z,101344.31
2022-10-11T05:14:44.477Z,101343.75
2022-10-11T05:17:24.700Z,101344.09
2022-10-11T05:20:08.133Z,101349.66
2022-10-11T05:22:48.714Z,101351.53
2022-10-11T05:25:28.846Z,101354.84
2022-10-11T05:28:09.287Z,101356.25
2022-10-11T05:30:49.612Z,101358.28
2022-10-11T05:33:29.815Z,101370.00
2022-10-11T05:36:10.690Z,101367.50
2022-10-11T05:38:51.785Z,101372.97
2022-10-11T05:41:32.145Z,101375.72
2022-10-11T05:44:12.404Z,101372.19
2022-10-11T05:46:52.645Z,101381.12
2022-10-11T05:49:32.989Z,101390.81
2022-10-11T05:52:13.654Z,101382.75
2022-10-11T05:54:53.515Z,101394.06
2022-10-11T05:57:33.758Z,101394.03
2022-10-11T06:00:15.080Z,101404.41
2022-10-11T06:02:57.740Z,101394.41
2022-10-11T06:05:38.601Z,101404.25
2022-10-11T06:08:19.913Z,101405.34
2022-10-11T06:11:00.370Z,101410.34
2022-10-11T06:13:40.830Z,101408.41
2022-10-11T06:16:20.987Z,101413.37
2022-10-11T06:19:01.002Z,101428.00
2022-10-11T06:21:41.266Z,101427.63
2022-10-11T06:24:25.444Z,101432.53
2022-10-11T06:27:08.619Z,101432.81
2022-10-11T06:29:49.201Z,101433.13
2022-10-11T06:32:30.478Z,101437.84
2022-10-11T06:35:10.924Z,101440.78
2022-10-11T06:37:51.404Z,101449.00
2022-10-11T06:40:34.300Z,101452.00
2022-10-11T06:43:14.459Z,101454.94
2022-10-11T06:46:00.125Z,101459.16
2022-10-11T06:48:43.375Z,101461.38
2022-10-11T06:51:27.206Z,101465.78
2022-10-11T06:54:08.782Z,101468.59
2022-10-11T06:56:49.330Z,101466.84
2022-10-11T06:59:30.006Z,101469.53
2022-10-11T07:02:11.900Z,101482.56
2022-10-11T07:04:53.268Z,101477.72
2022-10-11T07:07:33.830Z,101475.00
2022-10-11T07:10:13.493Z,101478.63
2022-10-11T07:12:56.610Z,101482.19
2022-10-11T07:15:41.175Z,101495.25
2022-10-11T07:18:22.164Z,101497.34
2022-10-11T07:21:06.079Z,101496.50
2022-10-11T07:23:46.239Z,101497.47
2022-10-11T07:26:26.398Z,101491.44
2022-10-11T07:29:07.141Z,101491.53
2022-10-11T07:31:47.069Z,101498.59
2022-10-11T07:34:27.332Z,101492.34
2022-10-11T07:37:07.485Z,101501.94
2022-10-11T07:39:49.694Z,101499.31
2022-10-11T07:42:29.449Z,101500.38
2022-10-11T07:45:10.426Z,101502.06
2022-10-11T07:47:51.727Z,101504.72
2022-10-11T07:50:32.024Z,101515.81
2022-10-11T07:53:12.280Z,101515.00
2022-10-11T07:55:52.343Z,101515.22
2022-10-11T07:58:32.892Z,101513.53
2022-10-11T08:01:14.651Z,101520.19
2022-10-11T08:03:56.806Z,101517.81
2022-10-11T08:06:37.358Z,101520.63
2022-10-11T08:09:18.638Z,101524.25
2022-10-11T08:11:58.881Z,101522.56
2022-10-11T08:14:41.478Z,101524.91
2022-10-11T08:17:22.780Z,101535.31
2022-10-11T08:20:03.012Z,101533.69
2022-10-11T08:22:43.061Z,101539.03
2022-10-11T08:25:25.569Z,101532.53
2022-10-11T08:28:06.046Z,101527.47
2022-10-11T08:30:50.812Z,101527.88
2022-10-11T08:33:31.248Z,101532.44
2022-10-11T08:36:11.937Z,101542.63
2022-10-11T08:38:53.105Z,101535.37
2022-10-11T08:41:42.788Z,101546.91
2022-10-11T08:44:58.690Z,101546.97
2022-10-11T08:47:41.845Z,101548.03
2022-10-11T08:50:24.461Z,101539.25
2022-10-11T08:53:08.921Z,101549.06
2022-10-11T08:55:52.446Z,101538.59
2022-10-11T08:58:40.284Z,101538.03
2022-10-11T09:01:24.447Z,101547.66
2022-10-11T09:04:06.108Z,101547.78
2022-10-11T09:06:55.855Z,101545.06
2022-10-11T09:09:55.676Z,101541.75
2022-10-11T09:12:49.645Z,101547.41
2022-10-11T09:15:35.729Z,101536.41
2022-10-11T09:18:41.254Z,101538.25
2022-10-11T09:21:32.374Z,101536.75
2022-10-11T09:24:34.311Z,101524.22
2022-10-11T09:27:29.100Z,101535.25
2022-10-11T09:30:19.916Z,101530.62
2022-10-11T09:33:11.539Z,101533.31
2022-10-11T09:35:54.003Z,101535.00
2022-10-11T09:38:42.143Z,101534.50
2022-10-11T09:41:18.513Z,101534.50
2022-10-11T09:43:55.998Z,101536.09
2022-10-11T09:46:31.970Z,101531.94
2022-10-11T09:49:03.676Z,101528.87
2022-10-11T09:51:33.574Z,101531.44
2022-10-11T09:54:05.520Z,101541.87
2022-10-11T09:56:41.054Z,101538.00
2022-10-11T09:59:18.265Z,101536.16
2022-10-11T10:01:47.076Z,101538.78
2022-10-11T10:04:18.189Z,101543.38
2022-10-11T10:06:46.677Z,101541.69
2022-10-11T10:09:31.174Z,101540.03
2022-10-11T10:11:59.705Z,101545.87
2022-10-11T10:14:30.340Z,101536.31
2022-10-11T10:17:04.657Z,101534.47
2022-10-11T10:19:44.656Z,101532.13
2022-10-11T10:22:19.847Z,101534.53
2022-10-11T10:24:51.306Z,101535.63
2022-10-11T10:27:22.161Z,101540.59
2022-10-11T10:30:14.474Z,101547.16
2022-10-11T10:32:50.930Z,101529.38
2022-10-11T10:35:33.246Z,101539.72
2022-10-11T10:38:16.571Z,101544.44
2022-10-11T10:40:50.282Z,101541.78
2022-10-11T10:43:20.202Z,101539.56
2022-10-11T10:46:24.698Z,101538.84
2022-10-11T10:51:57.403Z,101542.63
2022-10-11T10:54:40.397Z,101530.59
2022-10-11T10:57:19.131Z,101530.94
2022-10-11T10:59:59.795Z,101530.12
2022-10-11T11:02:40.577Z,101529.59
2022-10-11T11:05:23.089Z,101529.06
2022-10-11T11:10:48.293Z,101527.66
2022-10-11T11:13:28.657Z,101528.37
2022-10-11T11:16:06.435Z,101531.50
2022-10-11T11:18:43.734Z,101525.16
2022-10-11T11:21:25.815Z,101530.75
2022-10-11T11:24:03.935Z,101522.75
2022-10-11T11:26:44.189Z,101526.09
2022-10-11T11:29:28.932Z,101527.50
2022-10-11T11:32:17.788Z,101527.22
2022-10-11T11:34:50.674Z,101525.88
2022-10-11T11:37:27.030Z,101523.84
2022-10-11T11:40:00.662Z,101525.47
2022-10-11T11:42:36.900Z,101512.47
2022-10-11T11:45:19.914Z,101525.41
2022-10-11T11:47:54.074Z,101513.28
2022-10-11T11:50:27.921Z,101506.12
2022-10-11T11:53:04.206Z,101510.22
2022-10-11T11:55:39.961Z,101514.25
2022-10-11T11:58:23.089Z,101509.50
2022-10-11T12:00:59.461Z,101511.56
2022-10-11T12:03:32.459Z,101510.50
2022-10-11T12:06:24.073Z,101502.72
2022-10-11T12:09:03.629Z,101509.94
2022-10-11T12:11:53.678Z,101498.16
2022-10-11T12:14:38.841Z,101498.84
2022-10-11T12:17:16.735Z,101498.41
2022-10-11T12:20:13.351Z,101500.03
2022-10-11T12:22:58.331Z,101498.50
2022-10-11T12:25:43.517Z,101493.81
2022-10-11T12:32:56.423Z,101500.41
2022-10-11T12:36:25.186Z,101496.41
2022-10-11T12:39:32.546Z,101493.31
2022-10-11T12:42:31.385Z,101497.34
2022-10-11T12:45:40.220Z,101497.59
2022-10-11T12:52:01.877Z,101484.34
2022-10-11T12:55:08.453Z,101484.97
2022-10-11T12:57:57.345Z,101487.00
2022-10-11T13:00:30.075Z,101474.22
2022-10-11T13:03:00.607Z,101466.47
2022-10-11T13:05:36.153Z,101466.91
2022-10-11T13:08:18.908Z,101475.03
2022-10-11T13:10:50.239Z,101474.91
2022-10-11T13:13:24.238Z,101469.28
2022-10-11T13:15:55.253Z,101469.62
2022-10-11T13:18:25.741Z,101469.47
2022-10-11T13:20:55.827Z,101476.03
2022-10-11T13:23:27.284Z,101474.37
2022-10-11T13:25:57.707Z,101473.87
2022-10-11T13:28:36.443Z,101480.13
2022-10-11T13:31:06.509Z,101480.84
2022-10-11T13:33:39.595Z,101482.62
2022-10-11T13:36:18.401Z,101478.72
2022-10-11T13:38:53.744Z,101480.84
2022-10-11T13:41:22.659Z,101475.97
2022-10-11T13:43:51.212Z,101478.78
2022-10-11T13:46:23.398Z,101479.31
2022-10-11T13:49:00.393Z,101476.47
2022-10-11T13:51:33.366Z,101481.50
2022-10-11T13:54:04.631Z,101480.59
2022-10-11T13:56:36.029Z,101476.06
2022-10-11T13:59:04.952Z,101481.59
2022-10-11T14:01:39.428Z,101479.75
2022-10-11T14:04:11.292Z,101479.91
2022-10-11T14:06:45.043Z,101472.75
2022-10-11T14:09:21.310Z,101477.19
2022-10-11T14:11:50.362Z,101476.06
2022-10-11T14:14:41.717Z,101471.19
2022-10-11T14:17:16.159Z,101467.78
2022-10-11T14:19:46.115Z,101466.31
2022-10-11T14:22:17.750Z,101467.69
2022-10-11T14:24:49.022Z,101460.53
2022-10-11T14:27:21.546Z,101464.09
2022-10-11T14:30:06.378Z,101461.81
2022-10-11T14:32:39.796Z,101462.88
2022-10-11T14:35:16.738Z,101463.09
2022-10-11T14:37:46.609Z,101471.25
2022-10-11T14:40:18.054Z,101460.59
2022-10-11T14:42:46.757Z,101466.44
2022-10-11T14:45:15.439Z,101460.50
2022-10-11T14:47:43.858Z,101464.47
2022-10-11T14:50:27.508Z,101467.87
2022-10-11T14:52:58.133Z,101470.13
2022-10-11T14:55:26.836Z,101472.09
2022-10-11T14:57:56.348Z,101472.09
2022-10-11T15:00:27.453Z,101467.25
2022-10-11T15:02:56.900Z,101467.25
2022-10-11T15:05:33.497Z,101468.50
2022-10-11T15:08:04.824Z,101463.38
2022-10-11T15:10:37.399Z,101464.84
2022-10-11T15:13:07.906Z,101461.06
2022-10-11T15:15:38.205Z,101467.19
2022-10-11T15:18:08.534Z,101467.97
2022-10-11T15:20:39.477Z,101462.38
2022-10-11T15:23:10.499Z,101462.69
2022-10-11T15:25:40.752Z,101458.53
2022-10-11T15:28:15.655Z,101455.38
2022-10-11T15:30:44.368Z,101463.13
2022-10-11T15:33:12.546Z,101457.13
2022-10-11T15:35:40.684Z,101451.16
2022-10-11T15:38:17.662Z,101456.28
2022-10-11T15:40:46.348Z,101456.06
2022-10-11T15:43:15.144Z,101446.13
2022-10-11T15:45:43.630Z,101458.16
2022-10-11T15:48:15.554Z,101453.28
2022-10-11T15:50:44.099Z,101455.00
2022-10-11T15:53:15.664Z,101452.84
2022-10-11T15:55:46.545Z,101460.69
2022-10-11T15:58:16.041Z,101469.38
2022-10-11T16:00:45.841Z,101471.09
2022-10-11T16:03:16.441Z,101462.44
2022-10-11T16:05:45.027Z,101470.47
2022-10-11T16:08:15.465Z,101471.31
2022-10-11T16:10:44.920Z,101473.75
2022-10-11T16:13:13.613Z,101471.06
2022-10-11T16:15:43.525Z,101473.34
2022-10-11T16:18:13.989Z,101471.63
2022-10-11T16:20:45.059Z,101483.19
2022-10-11T16:23:15.384Z,101482.31
2022-10-11T16:25:44.225Z,101481.25
2022-10-11T16:28:12.695Z,101480.34
2022-10-11T16:30:43.203Z,101481.25
2022-10-11T16:33:11.785Z,101481.31
2022-10-11T16:35:42.601Z,101481.03
2022-10-11T16:38:11.524Z,101486.34
2022-10-11T16:40:42.898Z,101491.63
2022-10-11T16:43:11.737Z,101501.31
2022-10-11T16:45:40.151Z,101491.47
2022-10-11T16:48:08.584Z,101495.09
2022-10-11T16:50:39.644Z,101504.84
2022-10-11T16:53:08.294Z,101505.72
2022-10-11T16:55:36.417Z,101507.63
2022-10-11T16:58:05.907Z,101512.03
2022-10-11T17:00:34.497Z,101516.28
2022-10-11T17:03:02.758Z,101510.72
2022-10-11T17:05:30.833Z,101511.22
2022-10-11T17:07:59.214Z,101513.44
2022-10-11T17:10:39.449Z,101519.28
2022-10-11T17:13:09.418Z,101519.81
2022-10-11T17:15:39.691Z,101526.62
2022-10-11T17:18:08.179Z,101515.37
2022-10-11T17:20:36.356Z,101520.25
2022-10-11T17:23:04.637Z,101523.34
2022-10-11T17:25:33.021Z,101524.72
2022-10-11T17:28:01.156Z,101521.37
2022-10-11T17:30:30.736Z,101529.78
2022-10-11T17:32:59.256Z,101520.34
2022-10-11T17:35:27.531Z,101519.88
2022-10-11T17:37:55.724Z,101523.16
2022-10-11T17:40:24.367Z,101523.53
2022-10-11T17:42:53.363Z,101525.66
2022-10-11T17:45:22.705Z,101525.06
2022-10-11T17:47:52.525Z,101520.00
2022-10-11T17:50:20.918Z,101513.09
2022-10-11T17:52:49.143Z,101516.06
2022-10-11T17:55:17.834Z,101522.47
2022-10-11T17:57:46.427Z,101516.66
2022-10-11T18:00:16.083Z,101513.78
2022-10-11T18:02:44.544Z,101516.16
2022-10-11T18:05:14.694Z,101522.16
2022-10-11T18:07:43.138Z,101520.03
2022-10-11T18:10:11.608Z,101521.34
2022-10-11T18:12:39.888Z,101523.81
2022-10-11T18:15:09.557Z,101521.50
2022-10-11T18:17:38.088Z,101523.69
2022-10-11T18:20:06.876Z,101524.87
2022-10-11T18:22:36.406Z,101526.97
2022-10-11T18:25:05.389Z,101525.44
2022-10-11T18:27:33.573Z,101521.19
2022-10-11T18:30:01.851Z,101524.06
2022-10-11T18:32:30.291Z,101526.13
2022-10-11T18:34:59.787Z,101520.97
2022-10-11T18:37:28.319Z,101521.22
2022-10-11T18:39:58.163Z,101523.53
2022-10-11T18:42:26.430Z,101519.44
2022-10-11T18:44:55.328Z,101512.53
2022-10-11T18:47:23.850Z,101510.91
2022-10-11T18:49:51.970Z,101514.72
2022-10-11T18:52:20.083Z,101514.28
2022-10-11T18:54:48.511Z,101517.28
2022-10-11T18:57:18.237Z,101507.94
2022-10-11T18:59:48.701Z,101512.63
2022-10-11T19:02:17.488Z,101517.38
2022-10-11T19:04:45.807Z,101519.44
2022-10-11T19:07:14.018Z,101508.94
2022-10-11T19:09:43.324Z,101514.44
2022-10-11T19:12:11.642Z,101509.25
2022-10-11T19:14:41.421Z,101510.47
2022-10-11T19:17:12.300Z,101504.78
2022-10-11T19:19:40.829Z,101507.53
2022-10-11T19:22:09.064Z,101505.09
2022-10-11T19:24:37.594Z,101510.72
2022-10-11T19:27:05.836Z,101505.75
2022-10-11T19:29:34.526Z,101501.69
2022-10-11T19:32:04.561Z,101504.59
2022-10-11T19:34:33.001Z,101516.34
2022-10-11T19:37:03.253Z,101513.75
2022-10-11T19:39:32.159Z,101518.53
2022-10-11T19:42:01.590Z,101519.91
2022-10-11T19:44:29.751Z,101518.47
2022-10-11T19:47:02.703Z,101516.75
2022-10-11T19:49:34.660Z,101514.19
2022-10-11T19:52:03.486Z,101513.47
2022-10-11T19:54:31.980Z,101520.66
2022-10-11T19:57:00.304Z,101513.78
2022-10-11T19:59:28.727Z,101512.13
2022-10-11T20:01:59.914Z,101520.28
2022-10-11T20:07:18.623Z,101519.88
2022-10-11T20:09:47.262Z,101518.44
2022-10-11T20:12:15.529Z,101519.62
2022-10-11T20:14:43.754Z,101520.66
2022-10-11T20:17:12.347Z,101514.06
2022-10-11T20:19:41.192Z,101508.56
2022-10-11T20:22:09.647Z,101511.53
2022-10-11T20:24:39.408Z,101508.19
2022-10-11T20:27:07.979Z,101513.75
2022-10-11T20:29:36.262Z,101509.38
2022-10-11T20:32:04.872Z,101508.44
2022-10-11T20:34:33.338Z,101511.00
2022-10-11T20:37:01.437Z,101514.53
2022-10-11T20:39:30.483Z,101516.41
2022-10-11T20:41:59.923Z,101511.09
2022-10-11T20:44:28.124Z,101520.19
2022-10-11T20:47:00.284Z,101526.59
2022-10-11T20:49:31.242Z,101516.25
2022-10-11T20:51:59.652Z,101520.00
2022-10-11T20:54:29.790Z,101521.06
2022-10-11T20:56:58.034Z,101525.59
2022-10-11T20:59:28.634Z,101526.72
2022-10-11T21:01:56.887Z,101521.66
2022-10-11T21:04:25.008Z,101517.28
2022-10-11T21:06:53.603Z,101516.13
2022-10-11T21:09:21.775Z,101515.37
2022-10-11T21:11:49.894Z,101519.81
2022-10-11T21:14:18.344Z,101520.63
2022-10-11T21:16:47.853Z,101524.94
2022-10-11T21:19:16.553Z,101526.66
2022-10-11T21:21:50.900Z,101525.00
2022-10-11T21:24:21.390Z,101530.44
2022-10-11T21:26:49.870Z,101521.84
2022-10-11T21:29:18.526Z,101531.81
2022-10-11T21:31:48.063Z,101532.22
2022-10-11T21:34:16.754Z,101530.09
2022-10-11T21:36:44.942Z,101535.56
2022-10-11T21:39:13.094Z,101532.16
2022-10-11T21:41:42.314Z,101530.50
2022-10-11T21:44:10.904Z,101532.22
2022-10-11T21:47:04.803Z,101525.22
2022-10-11T21:49:31.842Z,101529.66
2022-10-11T21:52:00.005Z,101525.34
2022-10-11T21:54:28.698Z,101528.00
2022-10-11T21:56:56.812Z,101524.50
2022-10-11T21:59:24.954Z,101525.50
2022-10-11T22:01:56.929Z,101529.19
2022-10-11T22:04:27.870Z,101525.75
2022-10-11T22:06:57.476Z,101521.44
2022-10-11T22:09:27.677Z,101520.78
2022-10-11T22:11:58.074Z,101517.50
2022-10-11T22:14:26.844Z,101526.41
2022-10-11T22:16:55.031Z,101515.94
2022-10-11T22:19:23.811Z,101523.88
2022-10-11T22:21:52.306Z,101525.75
2022-10-11T22:24:21.793Z,101522.22
2022-10-11T22:26:50.195Z,101526.88
2022-10-11T22:29:18.474Z,101527.97
2022-10-11T22:31:46.653Z,101531.66
2022-10-11T22:34:15.217Z,101535.44
2022-10-11T22:36:43.436Z,101529.66
2022-10-11T22:39:11.722Z,101533.47
2022-10-11T22:41:41.801Z,101531.03
2022-10-11T22:44:09.986Z,101528.53
2022-10-11T22:46:38.200Z,101536.69
2022-10-11T22:49:06.965Z,101534.13
2022-10-11T22:51:35.142Z,101539.56
2022-10-11T22:54:03.311Z,101539.16
2022-10-11T22:56:31.885Z,101534.06
2022-10-11T22:59:01.604Z,101534.28
2022-10-11T23:01:30.427Z,101532.59
2022-10-11T23:03:59.150Z,101525.59
2022-10-11T23:06:27.481Z,101524.59
2022-10-11T23:08:55.872Z,101521.81
2022-10-11T23:11:24.558Z,101531.56
2022-10-11T23:13:52.844Z,101518.37
2022-10-11T23:16:22.532Z,101529.75
2022-10-11T23:18:53.414Z,101532.41
2022-10-11T23:21:21.595Z,101536.97
2022-10-11T23:23:52.803Z,101534.44
2022-10-11T23:26:22.196Z,101534.56
2022-10-11T23:28:55.223Z,101538.19
2022-10-11T23:31:25.141Z,101528.59
2022-10-11T23:33:54.603Z,101535.78
2022-10-11T23:36:24.721Z,101532.47
2022-10-11T23:38:54.809Z,101534.31
2022-10-11T23:41:23.693Z,101537.81
2022-10-11T23:43:52.077Z,101539.47
2022-10-11T23:46:20.707Z,101543.03
2022-10-11T23:48:50.481Z,101536.13
2022-10-11T23:51:18.674Z,101533.59
2022-10-11T23:53:47.352Z,101531.19
2022-10-11T23:56:15.541Z,101540.28
2022-10-11T23:58:43.826Z,101535.06
